sensor_id;sensor_type;location;lat;lon;timestamp;P1;durP1;ratioP1;P2;durP2;ratioP2
18931;SDS011;9598;50.954;3.112;2022-12-20T00:02:57;6.18;;;5.55;;
18931;SDS011;9598;50.954;3.112;2022-12-20T00:07:59;7.38;;;5.38;;
18931;SDS011;9598;50.954;3.112;2022-12-20T00:13:03;7.15;;;4.93;;
18931;SDS011;9598;50.954;3.112;2022-12-20T00:18:05;5.65;;;5.07;;
18931;SDS011;9598;50.954;3.112;2022-12-20T00:23:07;6.25;;;4.82;;
18931;SDS011;9598;50.954;3.112;2022-12-20T00:28:11;6.03;;;5.43;;
18931;SDS011;9598;50.954;3.112;2022-12-20T00:33:13;5.82;;;5.22;;
18931;SDS011;9598;50.954;3.112;2022-12-20T00:38:18;5.40;;;4.90;;
18931;SDS011;9598;50.954;3.112;2022-12-20T00:43:21;7.43;;;4.93;;
18931;SDS011;9598;50.954;3.112;2022-12-20T00:48:23;6.25;;;5.65;;
18931;SDS011;9598;50.954;3.112;2022-12-20T00:53:26;6.03;;;5.30;;
18931;SDS011;9598;50.954;3.112;2022-12-20T00:58:30;7.60;;;5.10;;
18931;SDS011;9598;50.954;3.112;2022-12-20T01:03:38;5.55;;;4.60;;
18931;SDS011;9598;50.954;3.112;2022-12-20T01:08:40;6.40;;;5.13;;
18931;SDS011;9598;50.954;3.112;2022-12-20T01:13:44;7.47;;;5.50;;
18931;SDS011;9598;50.954;3.112;2022-12-20T01:18:48;8.05;;;5.00;;
18931;SDS011;9598;50.954;3.112;2022-12-20T01:23:53;6.35;;;5.07;;
18931;SDS011;9598;50.954;3.112;2022-12-20T01:28:57;6.68;;;4.85;;
18931;SDS011;9598;50.954;3.112;2022-12-20T01:34:00;5.35;;;4.85;;
18931;SDS011;9598;50.954;3.112;2022-12-20T01:39:03;5.43;;;5.03;;
18931;SDS011;9598;50.954;3.112;2022-12-20T01:49:50;4.97;;;4.55;;
18931;SDS011;9598;50.954;3.112;2022-12-20T01:54:56;5.30;;;4.85;;
18931;SDS011;9598;50.954;3.112;2022-12-20T02:00:05;7.10;;;4.63;;
18931;SDS011;9598;50.954;3.112;2022-12-20T02:05:15;6.25;;;5.10;;
18931;SDS011;9598;50.954;3.112;2022-12-20T02:10:20;5.32;;;4.85;;
18931;SDS011;9598;50.954;3.112;2022-12-20T02:15:34;5.72;;;5.03;;
18931;SDS011;9598;50.954;3.112;2022-12-20T02:20:52;6.00;;;4.70;;
18931;SDS011;9598;50.954;3.112;2022-12-20T02:26:19;5.35;;;4.53;;
18931;SDS011;9598;50.954;3.112;2022-12-20T02:31:42;6.15;;;4.40;;
18931;SDS011;9598;50.954;3.112;2022-12-20T02:36:49;7.53;;;4.90;;
18931;SDS011;9598;50.954;3.112;2022-12-20T02:41:51;7.00;;;5.57;;
18931;SDS011;9598;50.954;3.112;2022-12-20T02:46:58;6.03;;;4.85;;
18931;SDS011;9598;50.954;3.112;2022-12-20T02:52:02;6.88;;;5.30;;
18931;SDS011;9598;50.954;3.112;2022-12-20T02:57:08;7.25;;;4.82;;
18931;SDS011;9598;50.954;3.112;2022-12-20T03:02:18;6.32;;;4.97;;
18931;SDS011;9598;50.954;3.112;2022-12-20T03:07:20;4.90;;;4.38;;
18931;SDS011;9598;50.954;3.112;2022-12-20T03:12:22;6.38;;;5.03;;
18931;SDS011;9598;50.954;3.112;2022-12-20T03:17:26;5.07;;;4.57;;
18931;SDS011;9598;50.954;3.112;2022-12-20T03:22:29;4.95;;;4.50;;
18931;SDS011;9598;50.954;3.112;2022-12-20T03:27:31;6.32;;;5.20;;
18931;SDS011;9598;50.954;3.112;2022-12-20T03:32:37;5.15;;;4.40;;
18931;SDS011;9598;50.954;3.112;2022-12-20T03:37:39;6.07;;;5.47;;
18931;SDS011;9598;50.954;3.112;2022-12-20T03:42:43;5.95;;;5.28;;
18931;SDS011;9598;50.954;3.112;2022-12-20T03:47:46;7.38;;;4.75;;
18931;SDS011;9598;50.954;3.112;2022-12-20T03:52:51;6.63;;;5.07;;
18931;SDS011;9598;50.954;3.112;2022-12-20T03:57:53;4.18;;;3.83;;
18931;SDS011;9598;50.954;3.112;2022-12-20T04:03:05;4.43;;;4.03;;
18931;SDS011;9598;50.954;3.112;2022-12-20T04:08:07;6.20;;;4.22;;
18931;SDS011;9598;50.954;3.112;2022-12-20T04:13:09;4.80;;;4.30;;
18931;SDS011;9598;50.954;3.112;2022-12-20T04:18:13;5.60;;;5.00;;
18931;SDS011;9598;50.954;3.112;2022-12-20T04:23:16;4.72;;;4.32;;
18931;SDS011;9598;50.954;3.112;2022-12-20T04:28:18;7.63;;;4.45;;
18931;SDS011;9598;50.954;3.112;2022-12-20T04:33:23;4.63;;;4.13;;
18931;SDS011;9598;50.954;3.112;2022-12-20T04:38:27;5.80;;;4.72;;
18931;SDS011;9598;50.954;3.112;2022-12-20T04:43:30;7.95;;;4.38;;
18931;SDS011;9598;50.954;3.112;2022-12-20T04:48:34;5.05;;;3.78;;
18931;SDS011;9598;50.954;3.112;2022-12-20T04:53:40;5.65;;;4.38;;
18931;SDS011;9598;50.954;3.112;2022-12-20T04:59:05;6.18;;;4.35;;
18931;SDS011;9598;50.954;3.112;2022-12-20T05:04:08;5.35;;;4.55;;
18931;SDS011;9598;50.954;3.112;2022-12-20T05:09:12;6.22;;;4.00;;
18931;SDS011;9598;50.954;3.112;2022-12-20T05:14:14;4.72;;;3.90;;
18931;SDS011;9598;50.954;3.112;2022-12-20T05:19:17;6.60;;;4.10;;
18931;SDS011;9598;50.954;3.112;2022-12-20T05:24:20;6.70;;;4.63;;
18931;SDS011;9598;50.954;3.112;2022-12-20T05:29:51;6.72;;;4.32;;
18931;SDS011;9598;50.954;3.112;2022-12-20T05:34:56;4.95;;;4.15;;
18931;SDS011;9598;50.954;3.112;2022-12-20T05:39:58;4.30;;;3.70;;
18931;SDS011;9598;50.954;3.112;2022-12-20T05:45:00;4.95;;;4.13;;
18931;SDS011;9598;50.954;3.112;2022-12-20T05:50:08;3.90;;;3.50;;
18931;SDS011;9598;50.954;3.112;2022-12-20T05:55:31;4.35;;;3.72;;
18931;SDS011;9598;50.954;3.112;2022-12-20T06:00:33;4.65;;;3.60;;
18931;SDS011;9598;50.954;3.112;2022-12-20T06:05:38;5.68;;;4.25;;
18931;SDS011;9598;50.954;3.112;2022-12-20T06:10:40;6.10;;;4.20;;
18931;SDS011;9598;50.954;3.112;2022-12-20T06:15:42;4.25;;;3.50;;
18931;SDS011;9598;50.954;3.112;2022-12-20T06:20:49;7.15;;;4.10;;
18931;SDS011;9598;50.954;3.112;2022-12-20T06:25:54;5.50;;;3.95;;
18931;SDS011;9598;50.954;3.112;2022-12-20T06:30:58;5.72;;;4.28;;
18931;SDS011;9598;50.954;3.112;2022-12-20T06:36:21;4.88;;;3.75;;
18931;SDS011;9598;50.954;3.112;2022-12-20T06:41:24;6.20;;;3.80;;
18931;SDS011;9598;50.954;3.112;2022-12-20T06:46:27;4.32;;;3.78;;
18931;SDS011;9598;50.954;3.112;2022-12-20T06:51:31;4.68;;;3.90;;
18931;SDS011;9598;50.954;3.112;2022-12-20T06:56:34;8.43;;;3.80;;
18931;SDS011;9598;50.954;3.112;2022-12-20T07:01:38;4.30;;;3.78;;
18931;SDS011;9598;50.954;3.112;2022-12-20T07:06:41;3.50;;;3.20;;
18931;SDS011;9598;50.954;3.112;2022-12-20T07:11:43;7.07;;;4.25;;
18931;SDS011;9598;50.954;3.112;2022-12-20T07:16:45;5.03;;;4.47;;
18931;SDS011;9598;50.954;3.112;2022-12-20T07:21:49;5.28;;;4.13;;
18931;SDS011;9598;50.954;3.112;2022-12-20T07:26:51;6.22;;;4.55;;
18931;SDS011;9598;50.954;3.112;2022-12-20T07:31:53;7.93;;;4.47;;
18931;SDS011;9598;50.954;3.112;2022-12-20T07:36:56;9.18;;;4.60;;
18931;SDS011;9598;50.954;3.112;2022-12-20T07:41:59;4.82;;;4.43;;
18931;SDS011;9598;50.954;3.112;2022-12-20T07:47:11;8.57;;;4.32;;
18931;SDS011;9598;50.954;3.112;2022-12-20T07:52:14;4.30;;;3.90;;
18931;SDS011;9598;50.954;3.112;2022-12-20T07:57:20;4.57;;;4.00;;
18931;SDS011;9598;50.954;3.112;2022-12-20T08:02:29;4.65;;;4.13;;
18931;SDS011;9598;50.954;3.112;2022-12-20T08:07:37;7.15;;;4.45;;
18931;SDS011;9598;50.954;3.112;2022-12-20T08:12:41;6.70;;;3.88;;
18931;SDS011;9598;50.954;3.112;2022-12-20T08:17:44;5.35;;;4.18;;
18931;SDS011;9598;50.954;3.112;2022-12-20T08:22:48;5.15;;;3.75;;
18931;SDS011;9598;50.954;3.112;2022-12-20T08:27:50;5.07;;;3.90;;
18931;SDS011;9598;50.954;3.112;2022-12-20T08:32:52;4.85;;;4.22;;
18931;SDS011;9598;50.954;3.112;2022-12-20T08:37:55;5.22;;;3.75;;
18931;SDS011;9598;50.954;3.112;2022-12-20T08:42:58;3.53;;;3.22;;
18931;SDS011;9598;50.954;3.112;2022-12-20T08:48:00;7.15;;;4.28;;
18931;SDS011;9598;50.954;3.112;2022-12-20T08:53:03;7.78;;;5.20;;
18931;SDS011;9598;50.954;3.112;2022-12-20T08:58:05;7.38;;;3.63;;
18931;SDS011;9598;50.954;3.112;2022-12-20T09:03:07;4.18;;;3.80;;
18931;SDS011;9598;50.954;3.112;2022-12-20T09:08:12;5.97;;;4.53;;
18931;SDS011;9598;50.954;3.112;2022-12-20T09:13:16;5.05;;;4.25;;
18931;SDS011;9598;50.954;3.112;2022-12-20T09:18:18;4.93;;;3.60;;
18931;SDS011;9598;50.954;3.112;2022-12-20T09:23:21;4.43;;;3.92;;
18931;SDS011;9598;50.954;3.112;2022-12-20T09:28:23;6.55;;;5.95;;
18931;SDS011;9598;50.954;3.112;2022-12-20T09:33:25;4.60;;;3.97;;
18931;SDS011;9598;50.954;3.112;2022-12-20T09:38:29;5.45;;;4.30;;
18931;SDS011;9598;50.954;3.112;2022-12-20T09:43:32;7.90;;;4.32;;
18931;SDS011;9598;50.954;3.112;2022-12-20T09:48:37;5.28;;;4.20;;
18931;SDS011;9598;50.954;3.112;2022-12-20T09:53:44;9.63;;;5.38;;
18931;SDS011;9598;50.954;3.112;2022-12-20T09:58:59;6.35;;;3.72;;
18931;SDS011;9598;50.954;3.112;2022-12-20T10:04:03;5.70;;;4.00;;
18931;SDS011;9598;50.954;3.112;2022-12-20T10:09:23;5.18;;;4.40;;
18931;SDS011;9598;50.954;3.112;2022-12-20T10:14:44;6.70;;;4.30;;
18931;SDS011;9598;50.954;3.112;2022-12-20T10:20:00;4.97;;;4.40;;
18931;SDS011;9598;50.954;3.112;2022-12-20T10:25:15;8.52;;;4.80;;
18931;SDS011;9598;50.954;3.112;2022-12-20T10:30:20;6.85;;;4.82;;
18931;SDS011;9598;50.954;3.112;2022-12-20T10:35:25;8.77;;;5.28;;
18931;SDS011;9598;50.954;3.112;2022-12-20T10:40:33;5.15;;;4.05;;
18931;SDS011;9598;50.954;3.112;2022-12-20T10:45:37;6.60;;;5.25;;
18931;SDS011;9598;50.954;3.112;2022-12-20T10:50:42;5.32;;;4.80;;
18931;SDS011;9598;50.954;3.112;2022-12-20T10:55:48;7.30;;;5.15;;
18931;SDS011;9598;50.954;3.112;2022-12-20T11:00:50;8.70;;;5.57;;
18931;SDS011;9598;50.954;3.112;2022-12-20T11:06:11;5.88;;;5.28;;
18931;SDS011;9598;50.954;3.112;2022-12-20T11:11:18;6.07;;;5.40;;
18931;SDS011;9598;50.954;3.112;2022-12-20T11:16:23;6.32;;;5.50;;
18931;SDS011;9598;50.954;3.112;2022-12-20T11:21:37;5.82;;;5.10;;
18931;SDS011;9598;50.954;3.112;2022-12-20T11:32:19;7.70;;;6.10;;
18931;SDS011;9598;50.954;3.112;2022-12-20T11:37:32;7.35;;;5.63;;
18931;SDS011;9598;50.954;3.112;2022-12-20T11:42:45;7.43;;;5.97;;
18931;SDS011;9598;50.954;3.112;2022-12-20T11:48:08;6.82;;;5.55;;
18931;SDS011;9598;50.954;3.112;2022-12-20T11:53:31;8.25;;;5.88;;
18931;SDS011;9598;50.954;3.112;2022-12-20T11:58:44;7.25;;;6.03;;
18931;SDS011;9598;50.954;3.112;2022-12-20T12:03:56;6.43;;;5.82;;
18931;SDS011;9598;50.954;3.112;2022-12-20T12:09:10;9.27;;;5.93;;
18931;SDS011;9598;50.954;3.112;2022-12-20T12:14:21;8.02;;;5.43;;
18931;SDS011;9598;50.954;3.112;2022-12-20T12:19:41;8.38;;;5.40;;
18931;SDS011;9598;50.954;3.112;2022-12-20T12:24:50;6.82;;;5.22;;
18931;SDS011;9598;50.954;3.112;2022-12-20T12:29:58;6.70;;;5.38;;
18931;SDS011;9598;50.954;3.112;2022-12-20T12:35:04;5.60;;;4.70;;
18931;SDS011;9598;50.954;3.112;2022-12-20T12:40:39;5.80;;;5.25;;
18931;SDS011;9598;50.954;3.112;2022-12-20T12:45:55;5.95;;;5.25;;
18931;SDS011;9598;50.954;3.112;2022-12-20T12:50:59;8.50;;;5.40;;
18931;SDS011;9598;50.954;3.112;2022-12-20T13:01:48;5.55;;;4.68;;
18931;SDS011;9598;50.954;3.112;2022-12-20T13:07:00;8.30;;;5.82;;
18931;SDS011;9598;50.954;3.112;2022-12-20T13:17:50;6.78;;;5.28;;
18931;SDS011;9598;50.954;3.112;2022-12-20T13:28:42;6.22;;;5.20;;
18931;SDS011;9598;50.954;3.112;2022-12-20T13:33:47;7.60;;;6.53;;
18931;SDS011;9598;50.954;3.112;2022-12-20T13:38:52;4.70;;;4.25;;
18931;SDS011;9598;50.954;3.112;2022-12-20T13:44:00;5.88;;;5.28;;
18931;SDS011;9598;50.954;3.112;2022-12-20T13:49:14;7.63;;;5.43;;
18931;SDS011;9598;50.954;3.112;2022-12-20T13:54:21;6.18;;;5.57;;
18931;SDS011;9598;50.954;3.112;2022-12-20T13:59:24;6.43;;;5.78;;
18931;SDS011;9598;50.954;3.112;2022-12-20T14:04:38;7.00;;;6.30;;
18931;SDS011;9598;50.954;3.112;2022-12-20T14:09:43;6.28;;;5.68;;
18931;SDS011;9598;50.954;3.112;2022-12-20T14:14:47;8.65;;;6.68;;
18931;SDS011;9598;50.954;3.112;2022-12-20T14:20:03;7.28;;;6.57;;
18931;SDS011;9598;50.954;3.112;2022-12-20T14:25:07;6.88;;;6.25;;
18931;SDS011;9598;50.954;3.112;2022-12-20T14:30:24;7.95;;;6.50;;
18931;SDS011;9598;50.954;3.112;2022-12-20T14:35:30;8.00;;;6.90;;
18931;SDS011;9598;50.954;3.112;2022-12-20T14:40:36;7.55;;;6.95;;
18931;SDS011;9598;50.954;3.112;2022-12-20T14:45:42;9.00;;;7.03;;
18931;SDS011;9598;50.954;3.112;2022-12-20T14:50:51;7.95;;;7.32;;
18931;SDS011;9598;50.954;3.112;2022-12-20T14:55:54;8.48;;;7.57;;
18931;SDS011;9598;50.954;3.112;2022-12-20T15:00:57;7.45;;;6.75;;
18931;SDS011;9598;50.954;3.112;2022-12-20T15:06:02;7.15;;;6.45;;
18931;SDS011;9598;50.954;3.112;2022-12-20T15:11:10;6.80;;;6.25;;
18931;SDS011;9598;50.954;3.112;2022-12-20T15:16:23;8.98;;;7.60;;
18931;SDS011;9598;50.954;3.112;2022-12-20T15:21:29;7.35;;;6.72;;
18931;SDS011;9598;50.954;3.112;2022-12-20T15:26:33;10.00;;;8.13;;
18931;SDS011;9598;50.954;3.112;2022-12-20T15:31:36;9.25;;;7.97;;
18931;SDS011;9598;50.954;3.112;2022-12-20T15:36:39;10.10;;;9.10;;
18931;SDS011;9598;50.954;3.112;2022-12-20T15:41:42;9.48;;;8.18;;
18931;SDS011;9598;50.954;3.112;2022-12-20T15:46:47;8.80;;;8.02;;
18931;SDS011;9598;50.954;3.112;2022-12-20T15:51:52;9.88;;;8.98;;
18931;SDS011;9598;50.954;3.112;2022-12-20T15:56:55;10.20;;;9.30;;
18931;SDS011;9598;50.954;3.112;2022-12-20T16:02:02;9.63;;;8.73;;
18931;SDS011;9598;50.954;3.112;2022-12-20T16:07:07;10.88;;;9.88;;
18931;SDS011;9598;50.954;3.112;2022-12-20T16:12:14;13.00;;;11.70;;
18931;SDS011;9598;50.954;3.112;2022-12-20T16:17:18;16.05;;;14.50;;
18931;SDS011;9598;50.954;3.112;2022-12-20T16:22:22;14.93;;;13.43;;
18931;SDS011;9598;50.954;3.112;2022-12-20T16:27:25;14.50;;;12.90;;
18931;SDS011;9598;50.954;3.112;2022-12-20T16:32:27;15.40;;;13.90;;
18931;SDS011;9598;50.954;3.112;2022-12-20T16:37:30;15.70;;;14.20;;
18931;SDS011;9598;50.954;3.112;2022-12-20T16:42:32;14.10;;;12.73;;
18931;SDS011;9598;50.954;3.112;2022-12-20T16:47:35;14.05;;;12.75;;
18931;SDS011;9598;50.954;3.112;2022-12-20T16:52:39;16.10;;;14.50;;
18931;SDS011;9598;50.954;3.112;2022-12-20T16:57:41;16.77;;;14.65;;
18931;SDS011;9598;50.954;3.112;2022-12-20T17:02:43;20.52;;;17.15;;
18931;SDS011;9598;50.954;3.112;2022-12-20T17:07:47;15.90;;;14.32;;
18931;SDS011;9598;50.954;3.112;2022-12-20T17:12:49;17.27;;;15.77;;
18931;SDS011;9598;50.954;3.112;2022-12-20T17:17:52;17.85;;;16.17;;
18931;SDS011;9598;50.954;3.112;2022-12-20T17:22:56;17.17;;;15.68;;
18931;SDS011;9598;50.954;3.112;2022-12-20T17:27:58;18.08;;;16.35;;
18931;SDS011;9598;50.954;3.112;2022-12-20T17:33:00;16.58;;;14.98;;
18931;SDS011;9598;50.954;3.112;2022-12-20T17:38:04;17.65;;;15.98;;
18931;SDS011;9598;50.954;3.112;2022-12-20T17:43:07;18.02;;;16.33;;
18931;SDS011;9598;50.954;3.112;2022-12-20T17:48:11;17.73;;;16.13;;
18931;SDS011;9598;50.954;3.112;2022-12-20T17:53:15;18.13;;;16.33;;
18931;SDS011;9598;50.954;3.112;2022-12-20T17:58:17;14.07;;;12.88;;
18931;SDS011;9598;50.954;3.112;2022-12-20T18:03:19;14.23;;;12.85;;
18931;SDS011;9598;50.954;3.112;2022-12-20T18:08:22;15.98;;;14.40;;
18931;SDS011;9598;50.954;3.112;2022-12-20T18:13:24;14.68;;;13.43;;
18931;SDS011;9598;50.954;3.112;2022-12-20T18:18:26;15.68;;;14.27;;
18931;SDS011;9598;50.954;3.112;2022-12-20T18:23:31;15.95;;;14.50;;
18931;SDS011;9598;50.954;3.112;2022-12-20T18:28:34;17.33;;;15.70;;
18931;SDS011;9598;50.954;3.112;2022-12-20T18:33:36;19.88;;;17.85;;
18931;SDS011;9598;50.954;3.112;2022-12-20T18:38:40;18.85;;;17.05;;
18931;SDS011;9598;50.954;3.112;2022-12-20T18:43:44;19.50;;;17.63;;
18931;SDS011;9598;50.954;3.112;2022-12-20T18:48:46;19.67;;;17.90;;
18931;SDS011;9598;50.954;3.112;2022-12-20T18:53:52;20.63;;;18.77;;
18931;SDS011;9598;50.954;3.112;2022-12-20T18:58:55;19.83;;;18.05;;
18931;SDS011;9598;50.954;3.112;2022-12-20T19:04:00;19.27;;;17.48;;
18931;SDS011;9598;50.954;3.112;2022-12-20T19:09:05;19.70;;;17.67;;
18931;SDS011;9598;50.954;3.112;2022-12-20T19:14:09;19.45;;;17.27;;
18931;SDS011;9598;50.954;3.112;2022-12-20T19:19:12;15.18;;;13.63;;
18931;SDS011;9598;50.954;3.112;2022-12-20T19:24:16;15.75;;;11.77;;
18931;SDS011;9598;50.954;3.112;2022-12-20T19:29:18;13.15;;;10.32;;
18931;SDS011;9598;50.954;3.112;2022-12-20T19:34:20;15.50;;;10.25;;
18931;SDS011;9598;50.954;3.112;2022-12-20T19:39:24;13.30;;;8.65;;
18931;SDS011;9598;50.954;3.112;2022-12-20T19:44:27;11.75;;;9.02;;
18931;SDS011;9598;50.954;3.112;2022-12-20T19:49:30;12.88;;;9.30;;
18931;SDS011;9598;50.954;3.112;2022-12-20T19:54:33;10.73;;;9.10;;
18931;SDS011;9598;50.954;3.112;2022-12-20T19:59:35;11.38;;;9.07;;
18931;SDS011;9598;50.954;3.112;2022-12-20T20:04:37;10.25;;;9.15;;
18931;SDS011;9598;50.954;3.112;2022-12-20T20:09:41;9.93;;;7.65;;
18931;SDS011;9598;50.954;3.112;2022-12-20T20:14:43;10.90;;;7.97;;
18931;SDS011;9598;50.954;3.112;2022-12-20T20:19:45;9.43;;;7.65;;
18931;SDS011;9598;50.954;3.112;2022-12-20T20:24:49;9.65;;;6.80;;
18931;SDS011;9598;50.954;3.112;2022-12-20T20:29:51;9.32;;;7.00;;
18931;SDS011;9598;50.954;3.112;2022-12-20T20:34:53;13.55;;;7.63;;
18931;SDS011;9598;50.954;3.112;2022-12-20T20:39:57;9.68;;;7.47;;
18931;SDS011;9598;50.954;3.112;2022-12-20T20:44:59;14.52;;;9.23;;
18931;SDS011;9598;50.954;3.112;2022-12-20T20:50:01;11.68;;;9.73;;
18931;SDS011;9598;50.954;3.112;2022-12-20T20:55:05;15.55;;;12.60;;
18931;SDS011;9598;50.954;3.112;2022-12-20T21:00:09;17.20;;;15.10;;
18931;SDS011;9598;50.954;3.112;2022-12-20T21:05:12;19.75;;;13.95;;
18931;SDS011;9598;50.954;3.112;2022-12-20T21:10:16;14.57;;;10.63;;
18931;SDS011;9598;50.954;3.112;2022-12-20T21:15:18;12.57;;;9.90;;
18931;SDS011;9598;50.954;3.112;2022-12-20T21:20:20;12.10;;;7.95;;
18931;SDS011;9598;50.954;3.112;2022-12-20T21:25:24;9.48;;;6.20;;
18931;SDS011;9598;50.954;3.112;2022-12-20T21:30:26;14.70;;;11.25;;
18931;SDS011;9598;50.954;3.112;2022-12-20T21:35:28;15.50;;;12.30;;
18931;SDS011;9598;50.954;3.112;2022-12-20T21:40:31;14.82;;;8.23;;
18931;SDS011;9598;50.954;3.112;2022-12-20T21:45:34;13.10;;;9.20;;
18931;SDS011;9598;50.954;3.112;2022-12-20T21:50:36;14.48;;;9.65;;
18931;SDS011;9598;50.954;3.112;2022-12-20T21:55:39;12.43;;;9.82;;
18931;SDS011;9598;50.954;3.112;2022-12-20T22:00:41;11.32;;;8.35;;
18931;SDS011;9598;50.954;3.112;2022-12-20T22:05:44;12.60;;;7.50;;
18931;SDS011;9598;50.954;3.112;2022-12-20T22:10:49;14.68;;;9.82;;
18931;SDS011;9598;50.954;3.112;2022-12-20T22:15:58;11.77;;;8.00;;
18931;SDS011;9598;50.954;3.112;2022-12-20T22:21:05;12.88;;;9.15;;
18931;SDS011;9598;50.954;3.112;2022-12-20T22:26:11;12.40;;;7.75;;
18931;SDS011;9598;50.954;3.112;2022-12-20T22:31:14;11.65;;;8.32;;
18931;SDS011;9598;50.954;3.112;2022-12-20T22:36:16;14.82;;;7.88;;
18931;SDS011;9598;50.954;3.112;2022-12-20T22:41:21;13.93;;;7.72;;
18931;SDS011;9598;50.954;3.112;2022-12-20T22:46:24;13.43;;;9.23;;
18931;SDS011;9598;50.954;3.112;2022-12-20T22:51:28;11.05;;;7.47;;
18931;SDS011;9598;50.954;3.112;2022-12-20T22:56:33;11.68;;;6.45;;
18931;SDS011;9598;50.954;3.112;2022-12-20T23:01:35;11.07;;;6.60;;
18931;SDS011;9598;50.954;3.112;2022-12-20T23:06:38;10.43;;;6.05;;
18931;SDS011;9598;50.954;3.112;2022-12-20T23:11:43;11.32;;;6.38;;
18931;SDS011;9598;50.954;3.112;2022-12-20T23:17:02;12.77;;;5.80;;
18931;SDS011;9598;50.954;3.112;2022-12-20T23:22:05;14.52;;;6.15;;
18931;SDS011;9598;50.954;3.112;2022-12-20T23:27:28;14.55;;;5.90;;
18931;SDS011;9598;50.954;3.112;2022-12-20T23:32:30;12.95;;;5.53;;
18931;SDS011;9598;50.954;3.112;2022-12-20T23:37:34;10.00;;;5.80;;
18931;SDS011;9598;50.954;3.112;2022-12-20T23:42:37;11.85;;;6.15;;
18931;SDS011;9598;50.954;3.112;2022-12-20T23:47:40;10.90;;;6.63;;
18931;SDS011;9598;50.954;3.112;2022-12-20T23:52:42;9.38;;;5.50;;
18931;SDS011;9598;50.954;3.112;2022-12-20T23:57:45;9.18;;;6.60;;
